ADDS TAF Data INFO
IDs: Format: Raw Decoded Include METARs

Data at: 0854 UTC 22 Jul 2018

KBKW 220851Z AUTO 16004KT 10SM OVC014 17/15 A2978 RMK AO2 SLP050 T01720150 56010 TSNO

KBKW 220534Z 2206/2306 16006KT P6SM BKN070
  TEMPO 2207/2210 4SM -SHRA OVC035
  FM221600 19005KT P6SM VCTS OVC025CB
  FM222100 16004KT 5SM SHRA VCTS BKN040CB
  FM230100 15004KT P6SM BKN040